Time;durP1;ratioP1;P1;durP2;ratioP2;P2;SDS_P1;SDS_P2;PMS_P1;PMS_P2;Temp;Humidity;BMP_temperature;BMP_pressure;BME280_temperature;BME280_humidity;BME280_pressure;Samples;Min_cycle;Max_cycle;Signal;HPM_P1;HPM_P2
2021/11/20 00:01:59;;;;;;;29.10;7.20;;;29.40;75.80;;;;;;5063632;28;20013;-53
2021/11/20 00:04:25;;;;;;;26.98;6.75;;;29.40;75.80;;;;;;5063728;28;20048;-47
2021/11/20 00:06:55;;;;;;;21.60;6.57;;;29.40;75.60;;;;;;5062703;28;20028;-52
2021/11/20 00:09:24;;;;;;;20.30;6.32;;;29.40;75.50;;;;;;5064133;28;20036;-51
2021/11/20 00:11:54;;;;;;;24.63;7.20;;;29.40;75.50;;;;;;5063653;28;20031;-48
2021/11/20 00:14:22;;;;;;;22.08;6.30;;;29.40;75.50;;;;;;5063954;28;20025;-45
2021/11/20 00:16:51;;;;;;;24.15;6.30;;;29.40;75.40;;;;;;5063536;28;20017;-48
2021/11/20 00:19:19;;;;;;;16.40;5.90;;;29.30;75.30;;;;;;5063872;28;20187;-43
2021/11/20 00:21:51;;;;;;;27.63;6.63;;;29.30;75.40;;;;;;5063671;28;20017;-50
2021/11/20 00:24:32;;;;;;;17.02;6.75;;;29.30;75.40;;;;;;5066387;28;20028;-46
2021/11/20 00:27:01;;;;;;;22.08;6.47;;;29.30;75.40;;;;;;5067797;28;20021;-47
2021/11/20 00:29:43;;;;;;;21.63;6.00;;;29.30;75.40;;;;;;5068081;28;20043;-46
2021/11/20 00:32:13;;;;;;;23.00;6.38;;;29.20;75.40;;;;;;5067517;28;20055;-48
2021/11/20 00:34:42;;;;;;;22.50;5.63;;;29.20;75.40;;;;;;5067840;28;20063;-43
2021/11/20 00:37:10;;;;;;;21.08;5.55;;;29.20;75.20;;;;;;5067310;28;20062;-47
2021/11/20 00:39:37;;;;;;;20.95;5.13;;;29.20;75.10;;;;;;5067865;28;20029;-48
2021/11/20 00:42:06;;;;;;;25.45;5.65;;;29.20;75.10;;;;;;5067379;28;20088;-48
2021/11/20 00:44:33;;;;;;;11.75;5.45;;;29.20;75.00;;;;;;5067243;28;20059;-47
2021/11/20 00:47:00;;;;;;;17.30;4.97;;;29.20;74.90;;;;;;5067154;28;20020;-51
2021/11/20 00:49:27;;;;;;;15.38;4.85;;;29.20;74.80;;;;;;5067509;28;20084;-52
2021/11/20 00:51:55;;;;;;;20.63;5.22;;;29.20;74.80;;;;;;5067054;28;20400;-45
2021/11/20 00:54:22;;;;;;;24.73;5.50;;;29.20;74.80;;;;;;5067301;28;20033;-52
2021/11/20 00:56:48;;;;;;;13.13;5.00;;;29.20;74.60;;;;;;5067072;28;20078;-44
2021/11/20 00:59:15;;;;;;;24.83;5.13;;;29.10;74.60;;;;;;5067138;28;20017;-52
2021/11/20 01:01:53;;;;;;;19.73;4.43;;;29.10;74.50;;;;;;5067055;28;20028;-52
2021/11/20 01:04:21;;;;;;;17.95;4.35;;;29.10;74.30;;;;;;5066752;28;20041;-47
2021/11/20 01:06:48;;;;;;;18.05;4.22;;;29.10;74.00;;;;;;5065411;28;20244;-53
2021/11/20 01:09:18;;;;;;;18.55;4.20;;;29.10;73.80;;;;;;5066977;28;20024;-44
2021/11/20 01:11:49;;;;;;;18.10;4.47;;;29.10;73.90;;;;;;5066349;28;20016;-48
2021/11/20 01:14:17;;;;;;;10.63;4.45;;;29.10;73.80;;;;;;5066700;28;20040;-51
2021/11/20 01:16:45;;;;;;;50.20;6.80;;;29.10;73.80;;;;;;5066584;28;20293;-49
2021/11/20 01:19:13;;;;;;;37.63;6.20;;;29.10;73.90;;;;;;5066760;28;20025;-46
2021/11/20 01:21:41;;;;;;;42.25;5.60;;;29.10;73.90;;;;;;5066648;28;20013;-49
2021/11/20 01:24:10;;;;;;;28.10;5.68;;;29.10;73.90;;;;;;5066949;28;20029;-47
2021/11/20 01:26:39;;;;;;;36.88;5.80;;;29.10;74.30;;;;;;5066404;28;20147;-47
2021/11/20 01:29:09;;;;;;;31.45;5.70;;;29.10;73.70;;;;;;5066373;28;20317;-47
2021/11/20 01:31:38;;;;;;;26.52;5.60;;;29.00;73.60;;;;;;5066321;28;20025;-51
2021/11/20 01:34:07;;;;;;;41.03;7.25;;;29.00;73.70;;;;;;5066747;28;20028;-53
2021/11/20 01:36:35;;;;;;;44.33;6.50;;;29.00;73.80;;;;;;5065368;28;20329;-53
2021/11/20 01:39:07;;;;;;;28.55;5.82;;;29.00;73.70;;;;;;5066505;28;20041;-52
2021/11/20 01:41:34;;;;;;;;;;;29.00;73.70;;;;;;5066798;28;20182;-51
2021/11/20 01:44:13;;;;;;;30.88;6.00;;;29.00;73.60;;;;;;5066570;28;20185;-51
2021/11/20 01:46:44;;;;;;;24.90;5.72;;;29.00;73.70;;;;;;5066198;28;20029;-51
2021/11/20 01:49:16;;;;;;;26.65;5.78;;;29.00;74.20;;;;;;5066444;28;20252;-51
2021/11/20 01:52:11;;;;;;;19.83;5.40;;;28.90;73.50;;;;;;5066052;28;20021;-50
2021/11/20 01:54:58;;;;;;;27.08;5.72;;;28.90;73.40;;;;;;5064902;28;20036;-52
2021/11/20 01:57:31;;;;;;;24.73;5.93;;;28.90;73.30;;;;;;5066108;28;20009;-50
2021/11/20 02:00:16;;;;;;;23.13;5.63;;;28.90;73.10;;;;;;5066596;28;20240;-47
2021/11/20 02:02:51;;;;;;;26.58;6.22;;;28.80;72.70;;;;;;5065994;28;20021;-46
2021/11/20 02:05:20;;;;;;;25.88;5.72;;;28.80;72.70;;;;;;5065627;28;20049;-49
2021/11/20 02:08:10;;;;;;;29.77;5.85;;;28.80;72.50;;;;;;5065957;28;20047;-50
2021/11/20 02:10:59;;;;;;;33.40;5.55;;;28.80;72.30;;;;;;5064383;28;20202;-49
2021/11/20 02:13:30;;;;;;;28.88;5.65;;;28.80;72.20;;;;;;5065369;28;20043;-49
2021/11/20 02:16:18;;;;;;;27.95;5.88;;;28.80;72.00;;;;;;5065528;28;20039;-53
2021/11/20 02:18:53;;;;;;;33.17;5.78;;;28.70;72.20;;;;;;5065683;28;20063;-49
2021/11/20 02:21:38;;;;;;;31.92;5.80;;;28.70;72.00;;;;;;5065454;28;20029;-50
2021/11/20 02:24:04;;;;;;;28.77;4.88;;;28.70;71.80;;;;;;5065826;28;20044;-50
2021/11/20 02:26:30;;;;;;;28.35;5.00;;;28.80;71.70;;;;;;5065378;28;20020;-54
2021/11/20 02:29:00;;;;;;;23.25;5.75;;;28.70;71.60;;;;;;5065668;28;20052;-50
2021/11/20 02:31:27;;;;;;;22.33;5.60;;;28.80;71.70;;;;;;5065494;28;20024;-50
2021/11/20 02:33:54;;;;;;;23.63;5.20;;;28.70;71.60;;;;;;5065413;28;20052;-46
2021/11/20 02:36:23;;;;;;;19.33;5.07;;;28.70;71.50;;;;;;5065281;28;20032;-45
2021/11/20 02:39:02;;;;;;;24.77;4.85;;;28.70;71.40;;;;;;5065446;28;20024;-49
2021/11/20 02:41:31;;;;;;;25.30;5.10;;;28.70;71.50;;;;;;5065276;28;20017;-51
2021/11/20 02:44:01;;;;;;;19.45;4.85;;;28.70;71.30;;;;;;5065272;28;20028;-48
2021/11/20 02:46:32;;;;;;;18.20;4.18;;;28.70;71.20;;;;;;5063627;28;20029;-49
2021/11/20 02:48:59;;;;;;;14.95;4.63;;;28.60;70.70;;;;;;5065214;28;20062;-55
2021/11/20 02:51:32;;;;;;;19.17;4.28;;;28.60;70.80;;;;;;5065021;28;20031;-50
2021/11/20 02:54:10;;;;;;;16.83;4.15;;;28.60;70.70;;;;;;5064968;28;20020;-53
2021/11/20 02:56:42;;;;;;;22.33;3.88;;;28.70;70.70;;;;;;5064827;28;20024;-48
2021/11/20 02:59:09;;;;;;;17.63;4.40;;;28.60;70.50;;;;;;5064967;28;20021;-48
2021/11/20 03:01:38;;;;;;;15.65;4.05;;;28.60;70.60;;;;;;5064895;28;20044;-48
2021/11/20 03:04:06;;;;;;;12.40;3.83;;;28.60;70.50;;;;;;5064732;28;20082;-54
2021/11/20 03:06:33;;;;;;;13.27;4.43;;;28.60;70.50;;;;;;5064610;28;20021;-47
2021/11/20 03:09:00;;;;;;;14.70;4.28;;;28.60;70.50;;;;;;5064827;28;20029;-51
2021/11/20 03:11:27;;;;;;;17.60;3.95;;;28.60;70.80;;;;;;5064526;28;20048;-50
2021/11/20 03:13:56;;;;;;;11.73;4.03;;;28.60;70.70;;;;;;5064332;28;20053;-46
2021/11/20 03:16:24;;;;;;;10.00;3.95;;;28.50;70.60;;;;;;5064447;28;20020;-46
2021/11/20 03:18:51;;;;;;;15.73;8.00;;;28.60;70.60;;;;;;5064676;28;20266;-43
2021/11/20 03:21:19;;;;;;;30.10;16.92;;;28.60;70.50;;;;;;5064345;28;20025;-44
2021/11/20 03:23:51;;;;;;;33.03;20.95;;;28.50;70.30;;;;;;5064480;28;20025;-44
2021/11/20 03:26:18;;;;;;;46.05;22.15;;;28.50;70.30;;;;;;5064339;28;20136;-45
2021/11/20 03:28:44;;;;;;;40.03;23.95;;;28.50;70.20;;;;;;5063223;28;20033;-46
2021/11/20 03:31:11;;;;;;;36.33;20.08;;;28.50;70.30;;;;;;5064348;28;20021;-48
2021/11/20 03:33:38;;;;;;;28.55;15.68;;;28.50;70.10;;;;;;5064406;28;20340;-46
2021/11/20 03:36:05;;;;;;;26.63;14.60;;;28.50;70.10;;;;;;5064269;28;20020;-46
2021/11/20 03:38:32;;;;;;;23.63;13.38;;;28.50;70.10;;;;;;5064299;28;20036;-50
2021/11/20 03:41:00;;;;;;;19.38;12.32;;;28.40;69.90;;;;;;5064215;28;20020;-49
2021/11/20 03:43:26;;;;;;;19.33;11.10;;;28.40;69.70;;;;;;5064042;28;20312;-56
2021/11/20 03:45:53;;;;;;;20.02;10.45;;;28.40;69.60;;;;;;5064083;28;20025;-53
2021/11/20 03:48:20;;;;;;;20.63;10.70;;;28.40;69.80;;;;;;5064091;28;20033;-53
2021/11/20 03:50:47;;;;;;;17.55;9.38;;;28.40;69.70;;;;;;5063868;28;20074;-53
2021/11/20 03:53:15;;;;;;;13.55;8.25;;;28.40;69.60;;;;;;5063974;28;20025;-53
2021/11/20 03:55:45;;;;;;;13.90;8.77;;;28.40;69.50;;;;;;5063779;28;20029;-51
2021/11/20 03:58:13;;;;;;;15.20;8.15;;;28.40;69.60;;;;;;5063150;28;20037;-54
2021/11/20 04:00:53;;;;;;;13.70;7.03;;;28.40;69.50;;;;;;5064180;28;20297;-54
2021/11/20 04:03:22;;;;;;;14.38;6.97;;;28.40;69.40;;;;;;5063769;28;20047;-43
2021/11/20 04:05:51;;;;;;;16.95;6.80;;;28.30;69.40;;;;;;5063617;28;20061;-44
2021/11/20 04:08:19;;;;;;;11.55;5.78;;;28.40;69.40;;;;;;5063997;28;20324;-52
2021/11/20 04:10:48;;;;;;;10.15;5.50;;;28.30;69.30;;;;;;5063635;28;20031;-45
2021/11/20 04:13:15;;;;;;;9.38;4.90;;;28.30;69.20;;;;;;5063718;28;20243;-45
2021/11/20 04:15:44;;;;;;;10.65;5.57;;;28.30;69.20;;;;;;5063758;28;20091;-45
2021/11/20 04:18:11;;;;;;;13.95;4.90;;;28.30;69.30;;;;;;5063744;28;20020;-44
2021/11/20 04:20:38;;;;;;;8.38;4.55;;;28.30;69.30;;;;;;5063710;28;20248;-45
2021/11/20 04:23:05;;;;;;;10.73;4.82;;;28.30;69.30;;;;;;5063644;28;20059;-45
2021/11/20 04:25:33;;;;;;;10.38;4.32;;;28.30;69.30;;;;;;5063445;28;20107;-52
2021/11/20 04:27:59;;;;;;;8.45;4.10;;;28.30;69.30;;;;;;5063617;28;20021;-52
2021/11/20 04:30:26;;;;;;;9.65;3.95;;;28.30;69.30;;;;;;5063607;28;20217;-51
2021/11/20 04:32:53;;;;;;;6.10;3.85;;;28.30;69.40;;;;;;5063354;28;20013;-52
2021/11/20 04:35:23;;;;;;;8.32;3.78;;;28.30;69.40;;;;;;5063454;28;20029;-52
2021/11/20 04:37:50;;;;;;;6.78;3.70;;;28.20;69.40;;;;;;5063602;28;20076;-55
2021/11/20 04:40:18;;;;;;;7.60;3.58;;;28.20;69.40;;;;;;5063425;28;20036;-53
2021/11/20 04:42:45;;;;;;;7.28;3.78;;;28.20;69.30;;;;;;5063457;28;20016;-52
2021/11/20 04:45:15;;;;;;;4.43;3.10;;;28.20;69.20;;;;;;5063376;28;20199;-52
2021/11/20 04:47:43;;;;;;;5.18;2.70;;;28.20;69.20;;;;;;5063697;28;20156;-53
2021/11/20 04:50:10;;;;;;;4.63;3.13;;;28.20;69.20;;;;;;5062470;28;20048;-51
2021/11/20 04:52:38;;;;;;;5.28;3.13;;;28.20;69.10;;;;;;5063449;28;20091;-55
2021/11/20 04:55:06;;;;;;;5.35;2.95;;;28.10;69.10;;;;;;5063665;28;20028;-55
2021/11/20 04:57:32;;;;;;;5.32;3.03;;;28.10;69.10;;;;;;5063383;28;20112;-54
2021/11/20 04:59:59;;;;;;;6.55;2.92;;;28.10;69.10;;;;;;5063792;28;20174;-55
2021/11/20 05:02:26;;;;;;;6.78;2.97;;;28.10;69.10;;;;;;5063347;28;20015;-53
2021/11/20 05:04:53;;;;;;;4.78;2.85;;;28.10;69.20;;;;;;5063338;28;20245;-54
2021/11/20 05:07:19;;;;;;;5.30;2.72;;;28.10;69.10;;;;;;5063245;28;20051;-59
2021/11/20 05:09:46;;;;;;;8.13;2.70;;;28.10;69.10;;;;;;5065067;28;20021;-56
2021/11/20 05:12:13;;;;;;;5.72;2.72;;;28.10;69.00;;;;;;5067031;28;20020;-55
2021/11/20 05:14:39;;;;;;;4.10;2.80;;;28.10;69.00;;;;;;5067276;28;20360;-44
2021/11/20 05:17:06;;;;;;;6.97;2.90;;;28.10;69.00;;;;;;5066794;28;20021;-44
2021/11/20 05:19:33;;;;;;;6.13;3.00;;;28.10;69.10;;;;;;5067385;28;20024;-48
2021/11/20 05:22:00;;;;;;;6.95;3.25;;;28.00;69.10;;;;;;5066795;28;20017;-47
2021/11/20 05:24:26;;;;;;;5.45;3.13;;;28.00;69.10;;;;;;5066941;28;20024;-44
2021/11/20 05:26:53;;;;;;;10.65;3.63;;;28.00;69.00;;;;;;5066716;28;20023;-44
2021/11/20 05:29:33;;;;;;;7.82;3.22;;;28.00;69.00;;;;;;5066944;28;20025;-46
2021/11/20 05:31:59;;;;;;;9.38;3.17;;;28.00;69.10;;;;;;5066645;28;20020;-45
2021/11/20 05:34:26;;;;;;;9.50;3.00;;;28.00;69.00;;;;;;5066920;28;20035;-45
2021/11/20 05:36:52;;;;;;;5.25;3.10;;;28.00;69.00;;;;;;5066298;28;20017;-45
2021/11/20 05:39:19;;;;;;;8.18;3.17;;;28.00;69.00;;;;;;5066748;28;20025;-47
2021/11/20 05:41:47;;;;;;;8.18;3.17;;;27.90;68.90;;;;;;5066488;28;20024;-47
2021/11/20 05:44:14;;;;;;;7.38;3.10;;;27.90;68.80;;;;;;5066218;28;20021;-51
2021/11/20 05:46:41;;;;;;;8.13;2.60;;;27.90;68.80;;;;;;5066413;28;20086;-42
2021/11/20 05:49:08;;;;;;;6.90;2.80;;;27.90;68.70;;;;;;5066555;28;20033;-45
2021/11/20 05:51:36;;;;;;;7.30;2.92;;;27.90;68.80;;;;;;5066247;28;20017;-50
2021/11/20 05:54:05;;;;;;;5.95;2.90;;;27.90;68.80;;;;;;5066304;28;20029;-47
2021/11/20 05:56:33;;;;;;;6.32;3.10;;;27.90;68.80;;;;;;5066241;28;20021;-45
2021/11/20 05:58:59;;;;;;;7.50;3.83;;;27.90;68.80;;;;;;5066200;28;20204;-43
2021/11/20 06:01:26;;;;;;;10.23;3.38;;;27.90;68.80;;;;;;5066124;28;20063;-46
2021/11/20 06:03:53;;;;;;;7.43;3.55;;;27.90;68.90;;;;;;5066226;28;20028;-48
2021/11/20 06:06:19;;;;;;;6.18;3.30;;;27.90;69.00;;;;;;5065897;28;20059;-49
2021/11/20 06:08:46;;;;;;;10.10;3.60;;;27.90;68.90;;;;;;5066114;28;20062;-50
2021/11/20 06:11:13;;;;;;;7.10;3.03;;;27.90;68.90;;;;;;5065922;28;20013;-43
2021/11/20 06:13:40;;;;;;;7.30;3.15;;;27.90;69.00;;;;;;5065840;28;20043;-45
2021/11/20 06:16:06;;;;;;;8.60;3.22;;;27.90;69.00;;;;;;5065679;28;20028;-44
2021/11/20 06:18:33;;;;;;;9.30;3.28;;;27.90;69.00;;;;;;5065839;28;20029;-45
2021/11/20 06:21:03;;;;;;;8.52;3.28;;;27.90;69.30;;;;;;5065147;28;20020;-46
2021/11/20 06:23:32;;;;;;;8.43;3.00;;;27.80;69.30;;;;;;5065691;28;20043;-51
2021/11/20 06:25:59;;;;;;;11.10;3.40;;;27.80;69.40;;;;;;5065777;28;20088;-45
2021/11/20 06:28:26;;;;;;;7.15;3.10;;;27.80;69.30;;;;;;5065452;28;20355;-48
2021/11/20 06:30:53;;;;;;;7.85;3.33;;;27.80;69.40;;;;;;5065598;28;20056;-44
2021/11/20 06:33:19;;;;;;;10.35;3.13;;;27.80;69.40;;;;;;5065530;28;20032;-45
2021/11/20 06:35:46;;;;;;;5.32;2.85;;;27.80;69.50;;;;;;5065342;28;20027;-45
2021/11/20 06:38:12;;;;;;;9.63;3.15;;;27.70;69.50;;;;;;5065436;28;20032;-49
2021/11/20 06:40:44;;;;;;;9.45;3.30;;;27.80;69.60;;;;;;5065337;28;20123;-48
2021/11/20 06:43:13;;;;;;;9.13;2.92;;;27.70;69.50;;;;;;5065159;28;20028;-46
2021/11/20 06:45:43;;;;;;;6.03;2.85;;;27.70;69.50;;;;;;5064130;28;20305;-45
2021/11/20 06:48:11;;;;;;;5.82;2.60;;;27.70;69.70;;;;;;5065229;28;20261;-51
2021/11/20 06:50:39;;;;;;;6.72;2.92;;;27.70;69.70;;;;;;5065050;28;20075;-45
2021/11/20 06:53:08;;;;;;;8.82;3.10;;;27.70;69.90;;;;;;5064983;28;20016;-44
2021/11/20 06:55:36;;;;;;;9.43;2.78;;;27.70;69.80;;;;;;5064907;28;20286;-46
2021/11/20 07:00:45;;;;;;;6.28;2.60;;;27.70;69.70;;;;;;5064973;28;20044;-43
2021/11/20 07:03:26;;;;;;;7.50;2.60;;;27.60;69.60;;;;;;5064751;28;20021;-46
2021/11/20 07:05:56;;;;;;;6.10;2.72;;;27.60;69.60;;;;;;5064746;28;20098;-44
2021/11/20 07:08:25;;;;;;;6.63;2.60;;;27.60;69.60;;;;;;5064824;28;20047;-50
2021/11/20 07:10:54;;;;;;;6.97;2.67;;;27.60;69.60;;;;;;5064697;28;20218;-44
2021/11/20 07:13:21;;;;;;;6.80;2.78;;;27.60;69.70;;;;;;5064639;28;20035;-45
2021/11/20 07:15:49;;;;;;;8.38;2.85;;;27.60;69.70;;;;;;5064443;28;20021;-42
2021/11/20 07:18:17;;;;;;;5.82;2.80;;;27.60;69.80;;;;;;5064669;28;20141;-46
2021/11/20 07:20:44;;;;;;;5.15;2.53;;;27.60;69.80;;;;;;5064537;28;20040;-46
2021/11/20 07:23:12;;;;;;;7.80;2.65;;;27.60;69.80;;;;;;5064411;28;20075;-49
2021/11/20 07:25:40;;;;;;;6.93;2.97;;;27.60;69.80;;;;;;5064574;28;20021;-44
2021/11/20 07:28:08;;;;;;;7.57;3.03;;;27.60;69.80;;;;;;5064365;28;20191;-50
2021/11/20 07:30:37;;;;;;;4.03;2.83;;;27.60;69.80;;;;;;5064230;28;20021;-45
2021/11/20 07:33:05;;;;;;;7.05;3.28;;;27.60;69.90;;;;;;5063417;28;20066;-48
2021/11/20 07:35:44;;;;;;;4.40;2.53;;;27.60;69.90;;;;;;5064259;28;20024;-43
2021/11/20 07:38:16;;;;;;;4.43;2.67;;;27.60;70.40;;;;;;5064480;28;21219;-45
2021/11/20 07:40:44;;;;;;;5.67;3.03;;;27.50;69.90;;;;;;5064274;28;20049;-45
2021/11/20 07:43:12;;;;;;;6.75;2.33;;;27.60;70.00;;;;;;5064032;28;20013;-45
2021/11/20 07:45:39;;;;;;;5.53;2.90;;;27.50;70.00;;;;;;5064171;28;20021;-46
2021/11/20 07:48:12;;;;;;;6.40;2.70;;;27.60;70.10;;;;;;5064112;28;20021;-46
2021/11/20 07:50:40;;;;;;;5.60;2.80;;;27.60;70.10;;;;;;5063981;28;20080;-44
2021/11/20 07:53:07;;;;;;;9.98;2.95;;;27.50;70.10;;;;;;5064102;28;20020;-43
2021/11/20 07:55:34;;;;;;;6.07;2.88;;;27.50;70.30;;;;;;5063793;28;20054;-46
2021/11/20 07:58:01;;;;;;;5.50;2.80;;;27.50;70.20;;;;;;5064044;28;20205;-48
2021/11/20 08:00:28;;;;;;;5.18;2.75;;;27.50;70.20;;;;;;5063964;28;20017;-44
2021/11/20 08:02:55;;;;;;;4.30;2.70;;;27.50;70.20;;;;;;5063911;28;20034;-43
2021/11/20 08:05:25;;;;;;;5.68;2.67;;;27.50;70.20;;;;;;5063572;28;20048;-49
2021/11/20 08:07:52;;;;;;;6.00;2.83;;;27.50;70.10;;;;;;5063764;28;20320;-45
2021/11/20 08:10:19;;;;;;;4.43;2.80;;;27.40;70.10;;;;;;5063807;28;20028;-51
2021/11/20 08:12:46;;;;;;;3.90;2.97;;;27.40;70.20;;;;;;5063674;28;20052;-43
2021/11/20 08:15:14;;;;;;;4.53;2.70;;;27.40;70.20;;;;;;5064139;28;20048;-44
2021/11/20 08:17:41;;;;;;;5.22;2.80;;;27.40;70.40;;;;;;5063720;28;20025;-48
2021/11/20 08:20:10;;;;;;;4.60;2.88;;;27.40;70.40;;;;;;5063519;28;20017;-45
2021/11/20 08:22:37;;;;;;;4.53;2.33;;;27.40;70.50;;;;;;5063829;28;20040;-44
2021/11/20 08:25:07;;;;;;;5.32;2.80;;;27.40;70.50;;;;;;5064086;28;20052;-44
2021/11/20 08:27:34;;;;;;;4.45;2.83;;;27.40;70.60;;;;;;5063527;28;20029;-48
2021/11/20 08:30:03;;;;;;;5.20;2.88;;;27.40;70.70;;;;;;5064303;28;20021;-45
2021/11/20 08:32:30;;;;;;;5.47;2.65;;;27.30;70.70;;;;;;5063624;28;20032;-43
2021/11/20 08:34:58;;;;;;;8.10;2.72;;;27.30;70.70;;;;;;5063827;28;20036;-51
2021/11/20 08:37:26;;;;;;;5.22;2.55;;;27.30;70.70;;;;;;5063562;28;20024;-44
2021/11/20 08:39:55;;;;;;;4.18;2.80;;;27.30;70.80;;;;;;5063954;28;20044;-51
2021/11/20 08:42:21;;;;;;;4.60;2.92;;;27.30;70.80;;;;;;5063962;28;20190;-44
2021/11/20 08:44:48;;;;;;;4.63;2.60;;;27.30;70.70;;;;;;5065579;28;20045;-47
2021/11/20 08:47:15;;;;;;;5.82;2.90;;;27.30;71.30;;;;;;5067497;28;20032;-44
2021/11/20 08:49:43;;;;;;;5.93;3.03;;;27.30;70.80;;;;;;5067681;28;20024;-44
2021/11/20 08:52:10;;;;;;;6.63;2.90;;;27.30;70.90;;;;;;5067578;28;20025;-44
2021/11/20 08:54:38;;;;;;;8.50;3.30;;;27.30;70.90;;;;;;5067610;28;20017;-50
2021/11/20 08:57:06;;;;;;;4.18;2.88;;;27.30;71.10;;;;;;5065966;28;20092;-45
2021/11/20 08:59:33;;;;;;;6.68;2.67;;;27.20;71.10;;;;;;5067182;28;20021;-46
2021/11/20 09:02:10;;;;;;;6.32;2.78;;;27.20;71.20;;;;;;5067181;28;20024;-50
2021/11/20 09:04:46;;;;;;;6.65;3.13;;;27.20;71.30;;;;;;5067239;28;20049;-47
2021/11/20 09:07:21;;;;;;;5.35;2.78;;;27.20;71.40;;;;;;5067124;28;20027;-44
2021/11/20 09:09:53;;;;;;;8.32;2.78;;;27.20;71.50;;;;;;5067554;28;20075;-46
2021/11/20 09:12:42;;;;;;;6.25;2.97;;;27.20;71.40;;;;;;5067041;28;20313;-45
2021/11/20 09:15:29;;;;;;;8.45;2.80;;;27.20;71.50;;;;;;5067343;28;20262;-47
2021/11/20 09:17:55;;;;;;;5.45;2.70;;;27.10;71.50;;;;;;5066768;28;20214;-47
2021/11/20 09:20:22;;;;;;;5.68;3.00;;;27.10;71.60;;;;;;5067006;28;20017;-49
2021/11/20 09:22:49;;;;;;;6.88;3.10;;;27.10;71.80;;;;;;5066871;28;20024;-45
2021/11/20 09:25:17;;;;;;;10.27;2.85;;;27.10;71.80;;;;;;5067140;28;20059;-47
2021/11/20 09:27:45;;;;;;;8.07;3.15;;;27.10;71.90;;;;;;5066721;28;20020;-46
2021/11/20 09:30:16;;;;;;;6.13;3.15;;;27.10;72.00;;;;;;5067147;28;20312;-43
2021/11/20 09:32:43;;;;;;;7.93;3.13;;;27.10;72.10;;;;;;5066603;28;20051;-44
2021/11/20 09:35:10;;;;;;;6.18;3.17;;;27.00;72.20;;;;;;5067023;28;20051;-46
2021/11/20 09:37:37;;;;;;;10.00;3.25;;;27.00;72.30;;;;;;5066580;28;20088;-46
2021/11/20 09:40:06;;;;;;;9.45;3.38;;;27.00;72.50;;;;;;5066833;28;20025;-45
2021/11/20 09:42:44;;;;;;;8.45;3.40;;;27.00;73.10;;;;;;5066438;28;20028;-45
2021/11/20 09:45:24;;;;;;;10.52;3.70;;;27.00;72.60;;;;;;5066271;28;20095;-49
2021/11/20 09:48:13;;;;;;;8.57;4.95;;;26.90;72.60;;;;;;5066267;28;20021;-44
2021/11/20 09:50:46;;;;;;;18.55;7.97;;;26.90;72.70;;;;;;5066229;28;20402;-46
2021/11/20 09:53:13;;;;;;;17.52;8.93;;;26.90;72.70;;;;;;5066255;28;20197;-52
2021/11/20 09:55:47;;;;;;;20.02;9.52;;;26.90;73.20;;;;;;5065354;28;20028;-46
2021/11/20 09:58:23;;;;;;;18.15;8.77;;;26.90;72.80;;;;;;5066080;28;20037;-45
2021/11/20 10:01:05;;;;;;;17.52;7.70;;;26.90;72.80;;;;;;5066205;28;20013;-50
2021/11/20 10:03:38;;;;;;;16.83;7.97;;;26.90;72.60;;;;;;5066298;28;20021;-45
2021/11/20 10:06:27;;;;;;;14.40;7.30;;;26.90;72.60;;;;;;5065931;28;20280;-46
2021/11/20 10:09:12;;;;;;;14.70;6.30;;;26.90;72.50;;;;;;5066017;28;20029;-44
2021/11/20 10:12:17;;;;;;;10.80;5.75;;;26.90;72.50;;;;;;5065838;28;20031;-51
2021/11/20 10:14:46;;;;;;;11.20;5.35;;;26.80;72.20;;;;;;5066096;28;20091;-45
2021/11/20 10:17:21;;;;;;;10.73;5.50;;;26.80;72.90;;;;;;5065864;28;20092;-48
2021/11/20 10:19:52;;;;;;;12.00;5.45;;;26.80;72.30;;;;;;5066352;28;20025;-52
2021/11/20 10:22:18;;;;;;;12.98;4.97;;;26.80;72.40;;;;;;5065578;28;20017;-52
2021/11/20 10:25:09;;;;;;;12.18;5.30;;;26.80;72.40;;;;;;5066044;28;20020;-49
2021/11/20 10:28:11;;;;;;;15.68;4.90;;;26.80;72.40;;;;;;5065743;28;20021;-49
2021/11/20 10:30:56;;;;;;;137.65;12.18;;;26.80;72.50;;;;;;5054092;28;20037;-49
2021/11/20 10:33:31;;;;;;;325.58;23.67;;;26.80;72.60;;;;;;5065666;28;20174;-44
2021/11/20 10:36:33;;;;;;;428.58;26.45;;;26.70;72.60;;;;;;5065224;28;20039;-46
2021/11/20 10:39:20;;;;;;;180.05;13.05;;;26.70;72.60;;;;;;5065445;28;20051;-45
2021/11/20 10:42:24;;;;;;;156.02;12.73;;;26.70;72.60;;;;;;5065349;28;20017;-43
2021/11/20 10:44:54;;;;;;;135.98;11.13;;;26.70;72.60;;;;;;5064464;28;20336;-49
2021/11/20 10:47:34;;;;;;;123.10;10.88;;;26.70;72.70;;;;;;5065082;28;20059;-49
2021/11/20 10:50:19;;;;;;;118.63;10.68;;;26.70;72.70;;;;;;5065664;28;20033;-45
2021/11/20 10:53:10;;;;;;;117.45;12.07;;;26.70;72.90;;;;;;5064922;28;20017;-45
2021/11/20 10:55:46;;;;;;;95.07;10.15;;;26.60;72.90;;;;;;5064863;28;20040;-45
2021/11/20 10:58:46;;;;;;;86.80;9.90;;;26.60;72.80;;;;;;5064957;28;20025;-45
2021/11/20 11:01:42;;;;;;;57.53;8.00;;;26.70;72.90;;;;;;5064692;28;20017;-53
2021/11/20 11:04:15;;;;;;;68.55;8.40;;;26.60;72.80;;;;;;5064840;28;20254;-47
2021/11/20 11:06:47;;;;;;;;;;;26.60;72.90;;;;;;5065291;28;20040;-49
2021/11/20 11:09:32;;;;;;;59.63;8.88;;;26.60;73.10;;;;;;5065019;28;20189;-48
2021/11/20 11:12:17;;;;;;;68.90;9.25;;;26.60;73.30;;;;;;5063574;28;20308;-46
2021/11/20 11:14:50;;;;;;;76.53;9.43;;;26.60;73.40;;;;;;5064926;28;20055;-50
2021/11/20 11:17:36;;;;;;;55.30;9.85;;;26.60;73.50;;;;;;5064620;28;20024;-49
2021/11/20 11:20:32;;;;;;;67.22;9.90;;;26.60;73.60;;;;;;5053639;28;20040;-46
2021/11/20 11:23:13;;;;;;;56.40;9.05;;;26.60;73.80;;;;;;5045521;28;20361;-50
2021/11/20 11:26:06;;;;;;;63.03;9.80;;;26.60;73.70;;;;;;5064660;28;20017;-46
2021/11/20 11:28:48;;;;;;;60.33;9.32;;;26.60;73.70;;;;;;5064311;28;20028;-44
2021/11/20 11:31:34;;;;;;;60.40;9.18;;;26.70;73.80;;;;;;5064413;28;20365;-53
2021/11/20 11:34:22;;;;;;;70.70;9.07;;;26.70;73.70;;;;;;5064521;28;20067;-48
2021/11/20 11:37:10;;;;;;;52.83;7.82;;;26.70;73.70;;;;;;5064138;28;20021;-49
2021/11/20 11:39:51;;;;;;;42.53;8.02;;;26.70;73.30;;;;;;5064640;28;20209;-46
2021/11/20 11:42:46;;;;;;;41.95;6.80;;;26.70;72.70;;;;;;5064073;28;20024;-46
2021/11/20 11:45:22;;;;;;;46.88;7.28;;;26.70;72.60;;;;;;5064487;28;20052;-52
2021/11/20 11:47:52;;;;;;;45.35;6.25;;;26.70;72.40;;;;;;5064051;28;20317;-50
2021/11/20 11:50:48;;;;;;;46.58;6.10;;;26.70;72.10;;;;;;5063860;28;20055;-46
2021/11/20 11:53:49;;;;;;;37.53;6.18;;;26.70;72.00;;;;;;5063914;28;20029;-44
2021/11/20 11:56:26;;;;;;;40.90;6.20;;;26.70;71.80;;;;;;5063839;28;20021;-44
2021/11/20 11:59:25;;;;;;;41.78;6.00;;;26.80;71.90;;;;;;5064171;28;20024;-45
2021/11/20 12:01:52;;;;;;;49.72;6.45;;;26.80;71.90;;;;;;5055202;28;20025;-46
2021/11/20 12:04:40;;;;;;;45.65;7.50;;;26.70;71.80;;;;;;5063806;28;20017;-45
2021/11/20 12:07:19;;;;;;;42.55;7.00;;;26.80;71.70;;;;;;5063857;28;20021;-45
2021/11/20 12:09:49;;;;;;;35.95;6.88;;;26.80;71.70;;;;;;5064239;28;20055;-49
2021/11/20 12:12:27;;;;;;;31.15;6.35;;;26.80;71.50;;;;;;5063811;28;20021;-46
2021/11/20 12:15:05;;;;;;;38.20;6.68;;;26.90;71.40;;;;;;5063507;28;20033;-46
2021/11/20 12:17:57;;;;;;;40.78;6.75;;;26.90;71.30;;;;;;5063715;28;20024;-47
2021/11/20 12:20:27;;;;;;;30.90;6.47;;;26.90;71.10;;;;;;5063280;28;20027;-47
2021/11/20 12:23:50;;;;;;;35.13;5.38;;;27.00;71.10;;;;;;5063642;28;20243;-51
2021/11/20 12:26:36;;;;;;;35.70;6.30;;;27.10;71.10;;;;;;5055195;28;20028;-46
2021/11/20 12:29:16;;;;;;;29.80;5.50;;;27.10;71.00;;;;;;5063787;28;20029;-46
2021/11/20 12:31:50;;;;;;;39.33;5.22;;;27.10;70.90;;;;;;5063450;28;20020;-52
2021/11/20 12:34:21;;;;;;;35.55;5.18;;;27.20;70.80;;;;;;5063895;28;20025;-44
2021/11/20 12:36:54;;;;;;;20.67;5.40;;;27.20;70.80;;;;;;5063518;28;20017;-51
2021/11/20 12:39:34;;;;;;;;;;;27.20;70.70;;;;;;5064252;28;20025;-52
2021/11/20 12:42:06;;;;;;;27.92;5.13;;;27.20;70.60;;;;;;5063508;28;19905;-48
2021/11/20 12:45:10;;;;;;;24.83;4.45;;;27.20;70.50;;;;;;5063940;28;20281;-45
2021/11/20 12:47:41;;;;;;;17.10;4.28;;;27.30;70.60;;;;;;5063259;28;20123;-44
2021/11/20 12:50:24;;;;;;;22.02;4.43;;;27.30;70.60;;;;;;5063896;28;20025;-51
2021/11/20 12:53:04;;;;;;;17.75;4.03;;;27.40;70.50;;;;;;5063315;28;20080;-51
2021/11/20 12:55:49;;;;;;;17.92;4.10;;;27.40;70.50;;;;;;5063096;28;20056;-45
2021/11/20 12:58:36;;;;;;;26.63;4.07;;;27.40;70.20;;;;;;5063316;28;20032;-49
2021/11/20 13:01:06;;;;;;;14.50;3.55;;;27.40;70.10;;;;;;5063226;28;20021;-51
2021/11/20 13:03:52;;;;;;;18.95;3.63;;;27.50;70.10;;;;;;5063314;28;20084;-48
2021/11/20 13:06:28;;;;;;;15.77;3.25;;;27.50;70.00;;;;;;5062964;28;20048;-54
2021/11/20 13:08:59;;;;;;;16.95;3.25;;;27.50;70.10;;;;;;5063486;28;20025;-50
2021/11/20 13:11:33;;;;;;;15.60;3.40;;;27.50;70.00;;;;;;5063271;28;20016;-48